sensor_id;sensor_type;location;lat;lon;timestamp;pressure;altitude;pressure_sealevel;temperature;humidity
55424;BME280;41294;42.666;23.350;2023-02-26T00:00:36;93862.28;;;15.59;46.65
55424;BME280;41294;42.666;23.350;2023-02-26T00:03:02;93874.56;;;15.62;46.81
55424;BME280;41294;42.666;23.350;2023-02-26T00:05:27;93856.63;;;15.44;47.13
55424;BME280;41294;42.666;23.350;2023-02-26T00:07:52;93849.44;;;15.39;46.57
55424;BME280;41294;42.666;23.350;2023-02-26T00:10:18;93861.84;;;15.55;46.29
55424;BME280;41294;42.666;23.350;2023-02-26T00:12:44;93846.78;;;15.39;46.33
55424;BME280;41294;42.666;23.350;2023-02-26T00:15:10;93853.28;;;15.38;46.30
55424;BME280;41294;42.666;23.350;2023-02-26T00:17:51;93839.06;;;15.36;46.81
55424;BME280;41294;42.666;23.350;2023-02-26T00:20:20;93849.44;;;15.39;46.40
55424;BME280;41294;42.666;23.350;2023-02-26T00:22:45;93839.19;;;15.54;46.10
55424;BME280;41294;42.666;23.350;2023-02-26T00:25:11;93856.06;;;15.51;46.12
55424;BME280;41294;42.666;23.350;2023-02-26T00:27:38;93850.59;;;15.44;45.99
55424;BME280;41294;42.666;23.350;2023-02-26T00:30:05;93852.81;;;15.34;46.27
55424;BME280;41294;42.666;23.350;2023-02-26T00:32:33;93838.50;;;15.13;47.03
55424;BME280;41294;42.666;23.350;2023-02-26T00:34:58;93841.56;;;15.23;46.98
55424;BME280;41294;42.666;23.350;2023-02-26T00:37:37;93853.81;;;15.31;46.33
55424;BME280;41294;42.666;23.350;2023-02-26T00:40:14;93811.75;;;15.46;44.29
55424;BME280;41294;42.666;23.350;2023-02-26T00:42:44;93832.75;;;15.44;45.28
55424;BME280;41294;42.666;23.350;2023-02-26T00:45:11;93841.50;;;15.34;46.42
55424;BME280;41294;42.666;23.350;2023-02-26T00:48:00;93838.09;;;15.39;46.01
55424;BME280;41294;42.666;23.350;2023-02-26T00:50:31;93826.22;;;15.45;45.00
55424;BME280;41294;42.666;23.350;2023-02-26T00:55:22;93819.56;;;15.33;45.11
55424;BME280;41294;42.666;23.350;2023-02-26T00:57:47;93806.06;;;15.31;44.59
55424;BME280;41294;42.666;23.350;2023-02-26T01:00:13;93829.63;;;15.40;44.44
55424;BME280;41294;42.666;23.350;2023-02-26T01:02:39;93822.31;;;15.52;44.22
55424;BME280;41294;42.666;23.350;2023-02-26T01:05:06;93820.94;;;15.45;44.33
55424;BME280;41294;42.666;23.350;2023-02-26T01:10:23;93793.03;;;15.33;44.04
55424;BME280;41294;42.666;23.350;2023-02-26T01:12:48;93806.25;;;15.39;44.46
55424;BME280;41294;42.666;23.350;2023-02-26T01:15:14;93795.56;;;15.50;43.94
55424;BME280;41294;42.666;23.350;2023-02-26T01:17:49;93803.25;;;15.53;43.66
55424;BME280;41294;42.666;23.350;2023-02-26T01:20:23;93783.25;;;15.52;42.84
55424;BME280;41294;42.666;23.350;2023-02-26T01:23:32;93777.41;;;15.30;44.03
55424;BME280;41294;42.666;23.350;2023-02-26T01:26:03;93763.22;;;15.51;42.73
55424;BME280;41294;42.666;23.350;2023-02-26T01:28:30;93762.28;;;15.49;43.20
55424;BME280;41294;42.666;23.350;2023-02-26T01:30:58;93768.75;;;15.53;42.87
55424;BME280;41294;42.666;23.350;2023-02-26T01:33:31;93760.84;;;15.48;42.75
55424;BME280;41294;42.666;23.350;2023-02-26T01:36:07;93759.59;;;15.54;43.14
55424;BME280;41294;42.666;23.350;2023-02-26T01:41:47;93730.28;;;15.41;43.05
55424;BME280;41294;42.666;23.350;2023-02-26T01:47:32;93757.28;;;15.45;43.29
55424;BME280;41294;42.666;23.350;2023-02-26T01:49:37;93730.28;;;15.41;43.51
55424;BME280;41294;42.666;23.350;2023-02-26T01:55:04;93736.06;;;15.45;42.51
55424;BME280;41294;42.666;23.350;2023-02-26T01:57:30;93755.66;;;15.37;41.84
55424;BME280;41294;42.666;23.350;2023-02-26T01:59:56;93717.81;;;15.36;41.39
55424;BME280;41294;42.666;23.350;2023-02-26T02:02:22;93708.78;;;15.45;40.95
55424;BME280;41294;42.666;23.350;2023-02-26T02:04:51;93708.75;;;15.50;42.06
55424;BME280;41294;42.666;23.350;2023-02-26T02:07:18;93730.47;;;15.49;42.34
55424;BME280;41294;42.666;23.350;2023-02-26T02:09:43;93740.63;;;15.45;43.00
55424;BME280;41294;42.666;23.350;2023-02-26T02:12:31;93736.47;;;15.49;42.48
55424;BME280;41294;42.666;23.350;2023-02-26T02:15:15;93714.59;;;15.43;42.54
55424;BME280;41294;42.666;23.350;2023-02-26T02:17:50;93734.16;;;15.40;42.46
55424;BME280;41294;42.666;23.350;2023-02-26T02:20:31;93743.44;;;15.28;42.61
55424;BME280;41294;42.666;23.350;2023-02-26T02:23:15;93723.13;;;15.36;42.78
55424;BME280;41294;42.666;23.350;2023-02-26T02:34:02;93738.25;;;15.41;41.45
55424;BME280;41294;42.666;23.350;2023-02-26T02:36:52;93721.13;;;15.42;41.37
55424;BME280;41294;42.666;23.350;2023-02-26T02:39:24;93721.34;;;15.44;40.64
55424;BME280;41294;42.666;23.350;2023-02-26T02:42:02;93712.50;;;15.36;41.26
55424;BME280;41294;42.666;23.350;2023-02-26T02:44:31;93732.84;;;15.28;40.87
55424;BME280;41294;42.666;23.350;2023-02-26T02:46:59;93737.91;;;15.26;41.26
55424;BME280;41294;42.666;23.350;2023-02-26T02:49:30;93741.09;;;15.19;41.69
55424;BME280;41294;42.666;23.350;2023-02-26T02:52:04;93750.25;;;15.18;40.96
55424;BME280;41294;42.666;23.350;2023-02-26T02:54:42;93751.41;;;15.23;41.65
55424;BME280;41294;42.666;23.350;2023-02-26T02:57:18;93739.59;;;15.29;41.52
55424;BME280;41294;42.666;23.350;2023-02-26T02:59:55;93747.81;;;15.26;40.99
55424;BME280;41294;42.666;23.350;2023-02-26T03:02:36;93755.25;;;15.27;40.64
55424;BME280;41294;42.666;23.350;2023-02-26T03:05:05;93754.22;;;15.36;40.72
55424;BME280;41294;42.666;23.350;2023-02-26T03:07:32;93774.72;;;15.35;40.58
55424;BME280;41294;42.666;23.350;2023-02-26T03:09:58;93750.34;;;15.37;40.48
55424;BME280;41294;42.666;23.350;2023-02-26T03:12:25;93743.59;;;15.36;40.44
55424;BME280;41294;42.666;23.350;2023-02-26T03:14:51;93753.41;;;15.46;40.60
55424;BME280;41294;42.666;23.350;2023-02-26T03:26:08;93741.44;;;15.34;40.14
55424;BME280;41294;42.666;23.350;2023-02-26T03:28:46;93752.09;;;15.29;40.13
55424;BME280;41294;42.666;23.350;2023-02-26T03:31:38;93745.78;;;15.37;39.77
55424;BME280;41294;42.666;23.350;2023-02-26T03:36:41;93728.19;;;15.34;39.96
55424;BME280;41294;42.666;23.350;2023-02-26T03:39:33;93726.53;;;15.31;40.24
55424;BME280;41294;42.666;23.350;2023-02-26T03:42:10;93735.03;;;15.24;40.16
55424;BME280;41294;42.666;23.350;2023-02-26T03:44:43;93734.75;;;15.28;40.18
55424;BME280;41294;42.666;23.350;2023-02-26T03:47:12;93721.50;;;15.28;40.36
55424;BME280;41294;42.666;23.350;2023-02-26T03:49:44;93712.59;;;15.25;40.09
55424;BME280;41294;42.666;23.350;2023-02-26T03:52:11;93722.81;;;15.16;40.25
55424;BME280;41294;42.666;23.350;2023-02-26T03:55:14;93729.41;;;15.33;40.10
55424;BME280;41294;42.666;23.350;2023-02-26T03:57:41;93721.22;;;15.31;40.16
55424;BME280;41294;42.666;23.350;2023-02-26T04:00:09;93707.25;;;15.31;40.06
55424;BME280;41294;42.666;23.350;2023-02-26T04:02:47;93717.09;;;15.36;40.17
55424;BME280;41294;42.666;23.350;2023-02-26T04:05:19;93706.66;;;15.43;39.89
55424;BME280;41294;42.666;23.350;2023-02-26T04:07:46;93711.72;;;15.41;39.90
55424;BME280;41294;42.666;23.350;2023-02-26T04:10:18;93708.41;;;15.35;39.64
55424;BME280;41294;42.666;23.350;2023-02-26T04:12:46;93713.25;;;15.31;39.72
55424;BME280;41294;42.666;23.350;2023-02-26T04:15:12;93712.78;;;15.33;39.76
55424;BME280;41294;42.666;23.350;2023-02-26T04:17:37;93703.41;;;15.32;39.92
55424;BME280;41294;42.666;23.350;2023-02-26T04:20:04;93681.44;;;15.31;39.72
55424;BME280;41294;42.666;23.350;2023-02-26T04:22:35;93705.50;;;15.39;39.89
55424;BME280;41294;42.666;23.350;2023-02-26T04:25:01;93718.09;;;15.33;39.70
55424;BME280;41294;42.666;23.350;2023-02-26T04:27:26;93690.03;;;15.43;39.53
55424;BME280;41294;42.666;23.350;2023-02-26T04:29:52;93690.63;;;15.54;39.56
55424;BME280;41294;42.666;23.350;2023-02-26T04:32:17;93684.28;;;15.39;39.94
55424;BME280;41294;42.666;23.350;2023-02-26T04:34:43;93688.03;;;15.49;39.46
55424;BME280;41294;42.666;23.350;2023-02-26T04:37:08;93680.47;;;15.34;39.38
55424;BME280;41294;42.666;23.350;2023-02-26T04:39:35;93676.59;;;15.35;39.51
55424;BME280;41294;42.666;23.350;2023-02-26T04:42:00;93669.16;;;15.34;39.01
55424;BME280;41294;42.666;23.350;2023-02-26T04:44:27;93690.03;;;15.43;39.01
55424;BME280;41294;42.666;23.350;2023-02-26T04:46:53;93667.31;;;15.47;38.85
55424;BME280;41294;42.666;23.350;2023-02-26T04:49:18;93679.13;;;15.46;39.26
55424;BME280;41294;42.666;23.350;2023-02-26T04:51:43;93670.84;;;15.55;39.08
55424;BME280;41294;42.666;23.350;2023-02-26T04:54:09;93675.81;;;15.40;39.01
55424;BME280;41294;42.666;23.350;2023-02-26T04:56:34;93666.09;;;15.48;38.55
55424;BME280;41294;42.666;23.350;2023-02-26T04:59:00;93679.13;;;15.46;39.25
55424;BME280;41294;42.666;23.350;2023-02-26T05:01:25;93670.63;;;15.29;38.93
55424;BME280;41294;42.666;23.350;2023-02-26T05:03:50;93666.78;;;15.30;39.12
55424;BME280;41294;42.666;23.350;2023-02-26T05:06:16;93664.41;;;15.27;39.65
55424;BME280;41294;42.666;23.350;2023-02-26T05:08:41;93683.34;;;15.36;39.46
55424;BME280;41294;42.666;23.350;2023-02-26T05:11:08;93649.22;;;15.22;39.84
55424;BME280;41294;42.666;23.350;2023-02-26T05:13:34;93633.81;;;15.26;39.80
55424;BME280;41294;42.666;23.350;2023-02-26T05:15:59;93651.94;;;15.16;38.92
55424;BME280;41294;42.666;23.350;2023-02-26T05:18:24;93639.13;;;15.20;38.90
55424;BME280;41294;42.666;23.350;2023-02-26T05:20:52;93668.13;;;15.37;38.64
55424;BME280;41294;42.666;23.350;2023-02-26T05:23:17;93620.22;;;15.35;38.27
55424;BME280;41294;42.666;23.350;2023-02-26T05:25:43;93605.16;;;15.43;38.02
55424;BME280;41294;42.666;23.350;2023-02-26T05:28:08;93642.44;;;15.50;38.01
55424;BME280;41294;42.666;23.350;2023-02-26T05:30:33;93642.53;;;15.15;39.63
55424;BME280;41294;42.666;23.350;2023-02-26T05:32:59;93706.63;;;15.19;39.58
55424;BME280;41294;42.666;23.350;2023-02-26T05:35:24;93638.13;;;15.23;39.30
55424;BME280;41294;42.666;23.350;2023-02-26T05:37:49;93654.75;;;15.48;37.88
55424;BME280;41294;42.666;23.350;2023-02-26T05:40:15;93653.72;;;15.93;37.09
55424;BME280;41294;42.666;23.350;2023-02-26T05:42:40;93644.78;;;16.14;36.90
55424;BME280;41294;42.666;23.350;2023-02-26T05:45:06;93662.25;;;16.41;36.78
55424;BME280;41294;42.666;23.350;2023-02-26T05:47:33;93644.44;;;16.54;36.07
55424;BME280;41294;42.666;23.350;2023-02-26T05:49:58;93660.59;;;16.20;36.91
55424;BME280;41294;42.666;23.350;2023-02-26T05:52:24;93649.22;;;16.25;36.46
55424;BME280;41294;42.666;23.350;2023-02-26T05:54:50;93647.06;;;16.23;36.46
55424;BME280;41294;42.666;23.350;2023-02-26T05:57:16;93662.78;;;16.40;36.39
55424;BME280;41294;42.666;23.350;2023-02-26T05:59:41;93668.47;;;16.31;36.25
55424;BME280;41294;42.666;23.350;2023-02-26T06:02:06;93640.38;;;16.35;36.10
55424;BME280;41294;42.666;23.350;2023-02-26T06:04:32;93644.78;;;16.14;36.28
55424;BME280;41294;42.666;23.350;2023-02-26T06:06:58;93667.75;;;16.30;35.95
55424;BME280;41294;42.666;23.350;2023-02-26T06:09:23;93656.94;;;16.23;36.10
55424;BME280;41294;42.666;23.350;2023-02-26T06:11:50;93670.22;;;16.23;35.85
55424;BME280;41294;42.666;23.350;2023-02-26T06:14:15;93665.06;;;16.48;35.83
55424;BME280;41294;42.666;23.350;2023-02-26T06:16:40;93657.53;;;16.52;35.86
55424;BME280;41294;42.666;23.350;2023-02-26T06:19:06;93673.13;;;16.74;35.27
55424;BME280;41294;42.666;23.350;2023-02-26T06:21:31;93671.09;;;16.80;35.23
55424;BME280;41294;42.666;23.350;2023-02-26T06:23:57;93685.19;;;16.75;34.97
55424;BME280;41294;42.666;23.350;2023-02-26T06:26:22;93675.69;;;16.48;35.28
55424;BME280;41294;42.666;23.350;2023-02-26T06:28:48;93669.84;;;16.68;35.48
55424;BME280;41294;42.666;23.350;2023-02-26T06:31:13;93677.88;;;17.07;34.70
55424;BME280;41294;42.666;23.350;2023-02-26T06:33:38;93671.34;;;16.95;34.98
55424;BME280;41294;42.666;23.350;2023-02-26T06:36:05;93686.16;;;17.35;34.39
55424;BME280;41294;42.666;23.350;2023-02-26T06:38:30;93691.91;;;17.65;33.38
55424;BME280;41294;42.666;23.350;2023-02-26T06:40:56;93662.00;;;17.59;33.39
55424;BME280;41294;42.666;23.350;2023-02-26T06:43:21;93666.28;;;17.88;32.94
55424;BME280;41294;42.666;23.350;2023-02-26T06:45:47;93654.03;;;17.46;33.49
55424;BME280;41294;42.666;23.350;2023-02-26T06:48:12;93666.47;;;17.90;32.93
55424;BME280;41294;42.666;23.350;2023-02-26T06:50:38;93671.09;;;17.89;32.54
55424;BME280;41294;42.666;23.350;2023-02-26T06:53:04;93690.81;;;18.19;32.05
55424;BME280;41294;42.666;23.350;2023-02-26T06:55:29;93642.50;;;17.90;32.24
55424;BME280;41294;42.666;23.350;2023-02-26T06:57:56;93650.22;;;17.80;32.17
55424;BME280;41294;42.666;23.350;2023-02-26T07:00:22;93630.16;;;18.13;31.75
55424;BME280;41294;42.666;23.350;2023-02-26T07:02:49;93641.63;;;18.54;31.83
55424;BME280;41294;42.666;23.350;2023-02-26T07:05:15;93702.59;;;18.57;31.47
55424;BME280;41294;42.666;23.350;2023-02-26T07:07:41;93645.50;;;18.32;31.72
55424;BME280;41294;42.666;23.350;2023-02-26T07:10:08;93607.72;;;18.21;31.57
55424;BME280;41294;42.666;23.350;2023-02-26T07:12:33;93643.75;;;18.35;31.69
55424;BME280;41294;42.666;23.350;2023-02-26T07:14:59;93617.81;;;18.35;31.59
55424;BME280;41294;42.666;23.350;2023-02-26T07:17:24;93601.19;;;18.42;31.61
55424;BME280;41294;42.666;23.350;2023-02-26T07:19:50;93641.16;;;18.42;31.57
55424;BME280;41294;42.666;23.350;2023-02-26T07:22:17;93593.34;;;18.85;30.91
55424;BME280;41294;42.666;23.350;2023-02-26T07:24:43;93591.47;;;18.73;31.34
55424;BME280;41294;42.666;23.350;2023-02-26T07:27:08;93591.97;;;19.12;30.70
55424;BME280;41294;42.666;23.350;2023-02-26T07:29:34;93623.41;;;19.06;30.94
55424;BME280;41294;42.666;23.350;2023-02-26T07:32:00;93604.16;;;19.28;30.63
55424;BME280;41294;42.666;23.350;2023-02-26T07:34:26;93625.13;;;18.76;30.79
55424;BME280;41294;42.666;23.350;2023-02-26T07:36:52;93609.16;;;18.83;30.53
55424;BME280;41294;42.666;23.350;2023-02-26T07:39:17;93604.25;;;19.43;30.26
55424;BME280;41294;42.666;23.350;2023-02-26T07:41:43;93599.94;;;19.68;30.54
55424;BME280;41294;42.666;23.350;2023-02-26T07:44:08;93627.81;;;19.94;31.24
55424;BME280;41294;42.666;23.350;2023-02-26T07:46:33;93600.91;;;19.92;29.22
55424;BME280;41294;42.666;23.350;2023-02-26T07:48:59;93612.91;;;20.06;29.38
55424;BME280;41294;42.666;23.350;2023-02-26T07:51:24;93618.69;;;19.83;29.62
55424;BME280;41294;42.666;23.350;2023-02-26T07:53:49;93608.53;;;19.88;29.56
55424;BME280;41294;42.666;23.350;2023-02-26T07:56:15;93621.63;;;19.99;29.05
55424;BME280;41294;42.666;23.350;2023-02-26T07:58:40;93612.53;;;19.95;29.14
55424;BME280;41294;42.666;23.350;2023-02-26T08:01:06;93653.53;;;20.05;29.24
55424;BME280;41294;42.666;23.350;2023-02-26T08:03:31;93606.44;;;19.52;29.94
55424;BME280;41294;42.666;23.350;2023-02-26T08:05:57;93608.53;;;19.81;30.92
55424;BME280;41294;42.666;23.350;2023-02-26T08:08:25;93621.47;;;19.70;29.99
55424;BME280;41294;42.666;23.350;2023-02-26T08:10:51;93639.22;;;19.60;29.41
55424;BME280;41294;42.666;23.350;2023-02-26T08:13:17;93606.78;;;19.20;30.17
55424;BME280;41294;42.666;23.350;2023-02-26T08:15:43;93631.13;;;19.45;29.77
55424;BME280;41294;42.666;23.350;2023-02-26T08:18:09;93621.69;;;19.44;29.85
55424;BME280;41294;42.666;23.350;2023-02-26T08:20:34;93630.38;;;19.37;30.10
55424;BME280;41294;42.666;23.350;2023-02-26T08:23:00;93630.97;;;19.50;30.05
55424;BME280;41294;42.666;23.350;2023-02-26T08:25:25;93625.91;;;19.67;29.45
55424;BME280;41294;42.666;23.350;2023-02-26T08:27:51;93641.25;;;19.39;29.61
55424;BME280;41294;42.666;23.350;2023-02-26T08:30:17;93636.22;;;19.63;29.83
55424;BME280;41294;42.666;23.350;2023-02-26T08:32:43;93648.94;;;19.78;29.91
55424;BME280;41294;42.666;23.350;2023-02-26T08:35:11;93665.06;;;19.65;29.89
55424;BME280;41294;42.666;23.350;2023-02-26T08:37:36;93665.06;;;19.65;29.36
55424;BME280;41294;42.666;23.350;2023-02-26T08:40:06;93687.63;;;19.28;29.79
55424;BME280;41294;42.666;23.350;2023-02-26T08:42:32;93666.72;;;19.75;29.50
55424;BME280;41294;42.666;23.350;2023-02-26T08:44:57;93654.97;;;19.78;29.17
55424;BME280;41294;42.666;23.350;2023-02-26T08:47:23;93662.50;;;19.52;29.51
55424;BME280;41294;42.666;23.350;2023-02-26T08:49:48;93682.66;;;19.60;29.23
55424;BME280;41294;42.666;23.350;2023-02-26T08:52:13;93666.22;;;19.49;29.49
55424;BME280;41294;42.666;23.350;2023-02-26T08:54:39;93695.38;;;19.47;29.80
55424;BME280;41294;42.666;23.350;2023-02-26T08:57:05;93673.34;;;19.54;29.10
55424;BME280;41294;42.666;23.350;2023-02-26T08:59:30;93685.09;;;19.23;30.60
55424;BME280;41294;42.666;23.350;2023-02-26T09:01:55;93693.00;;;19.36;29.32
55424;BME280;41294;42.666;23.350;2023-02-26T09:04:21;93675.22;;;19.66;29.33
55424;BME280;41294;42.666;23.350;2023-02-26T09:06:46;93698.75;;;19.68;29.30
55424;BME280;41294;42.666;23.350;2023-02-26T09:09:12;93694.34;;;19.50;29.19
55424;BME280;41294;42.666;23.350;2023-02-26T09:11:37;93683.72;;;19.92;28.77
55424;BME280;41294;42.666;23.350;2023-02-26T09:14:04;93671.41;;;19.82;28.42
55424;BME280;41294;42.666;23.350;2023-02-26T09:16:30;93690.72;;;19.95;28.55
55424;BME280;41294;42.666;23.350;2023-02-26T09:18:56;93693.97;;;20.52;28.03
55424;BME280;41294;42.666;23.350;2023-02-26T09:21:22;93697.97;;;21.03;27.59
55424;BME280;41294;42.666;23.350;2023-02-26T09:23:48;93671.56;;;20.84;27.38
55424;BME280;41294;42.666;23.350;2023-02-26T09:26:13;93675.88;;;21.02;27.43
55424;BME280;41294;42.666;23.350;2023-02-26T09:28:39;93654.06;;;21.51;26.96
55424;BME280;41294;42.666;23.350;2023-02-26T09:31:05;93692.63;;;21.77;26.36
55424;BME280;41294;42.666;23.350;2023-02-26T09:33:31;93679.06;;;21.60;26.48
55424;BME280;41294;42.666;23.350;2023-02-26T09:35:57;93688.66;;;21.86;26.36
55424;BME280;41294;42.666;23.350;2023-02-26T09:38:22;93689.25;;;22.31;26.06
55424;BME280;41294;42.666;23.350;2023-02-26T09:40:53;93700.25;;;22.50;25.60
55424;BME280;41294;42.666;23.350;2023-02-26T09:43:34;93685.50;;;22.66;25.15
55424;BME280;41294;42.666;23.350;2023-02-26T09:49:50;93680.00;;;22.88;24.77
55424;BME280;41294;42.666;23.350;2023-02-26T09:51:54;93676.88;;;22.99;24.61
55424;BME280;41294;42.666;23.350;2023-02-26T09:54:30;93680.97;;;23.08;24.71
55424;BME280;41294;42.666;23.350;2023-02-26T09:56:59;93642.19;;;22.69;24.87
55424;BME280;41294;42.666;23.350;2023-02-26T09:59:27;93670.91;;;22.52;25.42
55424;BME280;41294;42.666;23.350;2023-02-26T10:02:16;93672.84;;;23.15;24.63
55424;BME280;41294;42.666;23.350;2023-02-26T10:04:59;93673.16;;;23.43;24.87
55424;BME280;41294;42.666;23.350;2023-02-26T10:10:17;93641.22;;;23.47;24.58
55424;BME280;41294;42.666;23.350;2023-02-26T10:12:47;93673.81;;;23.68;24.42
55424;BME280;41294;42.666;23.350;2023-02-26T10:15:19;93664.50;;;23.04;25.52
55424;BME280;41294;42.666;23.350;2023-02-26T10:20:24;93675.47;;;23.64;25.37
55424;BME280;41294;42.666;23.350;2023-02-26T10:25:41;93630.69;;;23.01;25.64
55424;BME280;41294;42.666;23.350;2023-02-26T10:30:42;93642.94;;;23.77;25.16
55424;BME280;41294;42.666;23.350;2023-02-26T10:36:20;93627.13;;;22.42;25.74
55424;BME280;41294;42.666;23.350;2023-02-26T10:38:49;93629.69;;;22.64;25.78
55424;BME280;41294;42.666;23.350;2023-02-26T10:41:19;93615.69;;;22.02;25.71
55424;BME280;41294;42.666;23.350;2023-02-26T10:43:51;93607.28;;;22.06;26.39
55424;BME280;41294;42.666;23.350;2023-02-26T10:51:53;93608.25;;;21.09;27.46
55424;BME280;41294;42.666;23.350;2023-02-26T10:54:51;93608.75;;;20.63;27.64
55424;BME280;41294;42.666;23.350;2023-02-26T10:57:26;93609.50;;;20.86;27.66
55424;BME280;41294;42.666;23.350;2023-02-26T10:59:52;93625.03;;;20.80;28.05
55424;BME280;41294;42.666;23.350;2023-02-26T11:02:34;93624.47;;;21.19;27.60
55424;BME280;41294;42.666;23.350;2023-02-26T11:05:02;93620.16;;;20.71;28.09
55424;BME280;41294;42.666;23.350;2023-02-26T11:07:30;93593.09;;;21.04;28.76
55424;BME280;41294;42.666;23.350;2023-02-26T11:09:56;93604.09;;;21.38;28.52
55424;BME280;41294;42.666;23.350;2023-02-26T11:12:24;93603.41;;;20.93;28.11
55424;BME280;41294;42.666;23.350;2023-02-26T11:14:50;93599.44;;;19.84;29.84
55424;BME280;41294;42.666;23.350;2023-02-26T11:17:17;93499.53;;;19.80;29.21
55424;BME280;41294;42.666;23.350;2023-02-26T11:19:56;93571.78;;;19.67;30.86
55424;BME280;41294;42.666;23.350;2023-02-26T11:24:58;93585.28;;;19.61;29.24
55424;BME280;41294;42.666;23.350;2023-02-26T11:27:29;93594.78;;;19.70;29.56
55424;BME280;41294;42.666;23.350;2023-02-26T11:29:57;93603.03;;;19.51;29.87
55424;BME280;41294;42.666;23.350;2023-02-26T11:32:34;93624.84;;;19.35;30.24
55424;BME280;41294;42.666;23.350;2023-02-26T11:35:00;93607.84;;;19.17;30.76
55424;BME280;41294;42.666;23.350;2023-02-26T11:37:33;93634.19;;;19.21;30.74
55424;BME280;41294;42.666;23.350;2023-02-26T11:40:12;93620.28;;;19.15;31.03
55424;BME280;41294;42.666;23.350;2023-02-26T11:42:48;93626.66;;;19.12;30.93
55424;BME280;41294;42.666;23.350;2023-02-26T11:45:17;93621.38;;;18.79;30.98
55424;BME280;41294;42.666;23.350;2023-02-26T11:47:46;93647.03;;;18.82;31.83
55424;BME280;41294;42.666;23.350;2023-02-26T11:50:18;93616.56;;;18.98;30.66
55424;BME280;41294;42.666;23.350;2023-02-26T11:52:46;93661.66;;;18.88;31.79
55424;BME280;41294;42.666;23.350;2023-02-26T11:55:34;93664.69;;;18.92;31.52
55424;BME280;41294;42.666;23.350;2023-02-26T11:58:00;93669.78;;;19.03;30.61
55424;BME280;41294;42.666;23.350;2023-02-26T12:00:36;93700.81;;;18.93;29.51
55424;BME280;41294;42.666;23.350;2023-02-26T12:03:04;93670.78;;;18.72;31.22
55424;BME280;41294;42.666;23.350;2023-02-26T12:05:32;93665.88;;;19.04;31.66
55424;BME280;41294;42.666;23.350;2023-02-26T12:07:58;93679.63;;;19.08;31.60
55424;BME280;41294;42.666;23.350;2023-02-26T12:10:37;93674.97;;;19.08;31.75
55424;BME280;41294;42.666;23.350;2023-02-26T12:13:31;93684.91;;;19.49;32.19
55424;BME280;41294;42.666;23.350;2023-02-26T12:16:28;93693.81;;;19.79;32.26
55424;BME280;41294;42.666;23.350;2023-02-26T12:19:10;93677.31;;;19.60;32.24
55424;BME280;41294;42.666;23.350;2023-02-26T12:22:00;93683.88;;;19.52;33.26
55424;BME280;41294;42.666;23.350;2023-02-26T12:24:41;93673.81;;;19.73;33.11
55424;BME280;41294;42.666;23.350;2023-02-26T12:35:35;93701.63;;;19.49;35.23
55424;BME280;41294;42.666;23.350;2023-02-26T12:40:53;93685.56;;;19.70;35.62
55424;BME280;41294;42.666;23.350;2023-02-26T13:20:02;93719.25;;;19.24;32.75
55424;BME280;41294;42.666;23.350;2023-02-26T13:22:41;93724.25;;;19.28;32.27
55424;BME280;41294;42.666;23.350;2023-02-26T13:27:57;93730.34;;;19.56;32.73
55424;BME280;41294;42.666;23.350;2023-02-26T13:30:37;93716.66;;;19.60;32.92
55424;BME280;41294;42.666;23.350;2023-02-26T13:33:09;93709.34;;;19.88;32.58
55424;BME280;41294;42.666;23.350;2023-02-26T13:35:40;93703.75;;;19.99;32.38
55424;BME280;41294;42.666;23.350;2023-02-26T13:41:35;93697.63;;;20.26;32.38
55424;BME280;41294;42.666;23.350;2023-02-26T13:44:24;93694.94;;;20.26;33.45
55424;BME280;41294;42.666;23.350;2023-02-26T13:50:11;93676.91;;;20.19;33.87
55424;BME280;41294;42.666;23.350;2023-02-26T13:53:41;93693.25;;;20.08;33.93
55424;BME280;41294;42.666;23.350;2023-02-26T13:55:44;93702.16;;;20.03;35.03
55424;BME280;41294;42.666;23.350;2023-02-26T13:58:43;93705.00;;;20.05;34.06
55424;BME280;41294;42.666;23.350;2023-02-26T14:01:35;93696.13;;;20.10;33.66
55424;BME280;41294;42.666;23.350;2023-02-26T14:12:01;93683.06;;;19.64;32.51
55424;BME280;41294;42.666;23.350;2023-02-26T14:35:35;93720.44;;;19.44;32.07
55424;BME280;41294;42.666;23.350;2023-02-26T14:38:05;93729.47;;;19.33;31.68
55424;BME280;41294;42.666;23.350;2023-02-26T14:43:30;93732.81;;;19.54;32.01
55424;BME280;41294;42.666;23.350;2023-02-26T14:46:11;93718.59;;;19.31;32.78
55424;BME280;41294;42.666;23.350;2023-02-26T14:48:40;93726.81;;;19.13;32.39
55424;BME280;41294;42.666;23.350;2023-02-26T14:54:29;93733.00;;;18.75;32.61
55424;BME280;41294;42.666;23.350;2023-02-26T14:57:27;93742.47;;;18.96;32.62
55424;BME280;41294;42.666;23.350;2023-02-26T15:00:05;93735.84;;;19.10;32.91
55424;BME280;41294;42.666;23.350;2023-02-26T15:13:22;93734.03;;;18.72;32.53
55424;BME280;41294;42.666;23.350;2023-02-26T15:36:56;93757.50;;;18.40;36.56
55424;BME280;41294;42.666;23.350;2023-02-26T15:39:23;93788.25;;;18.28;37.25
55424;BME280;41294;42.666;23.350;2023-02-26T16:20:40;93834.66;;;17.49;38.98
55424;BME280;41294;42.666;23.350;2023-02-26T16:23:18;93825.47;;;17.01;41.05
55424;BME280;41294;42.666;23.350;2023-02-26T16:25:52;93838.63;;;16.75;41.91
55424;BME280;41294;42.666;23.350;2023-02-26T16:39:30;93829.84;;;16.80;43.61
55424;BME280;41294;42.666;23.350;2023-02-26T16:49:38;93878.06;;;16.89;43.23
55424;BME280;41294;42.666;23.350;2023-02-26T16:57:18;93862.97;;;16.60;44.25
55424;BME280;41294;42.666;23.350;2023-02-26T17:38:27;93889.97;;;16.64;44.14
55424;BME280;41294;42.666;23.350;2023-02-26T17:40:53;93903.25;;;16.64;44.04
55424;BME280;41294;42.666;23.350;2023-02-26T17:48:30;93897.38;;;16.29;45.06
55424;BME280;41294;42.666;23.350;2023-02-26T17:58:41;93895.44;;;16.00;46.21
55424;BME280;41294;42.666;23.350;2023-02-26T18:01:09;93888.03;;;15.93;46.01